Southwest Georgia Regional Airport
KABY : now visible

Airfield :











YOU CAN JOIN US ON...

 
LOGIN :

Register | Disclaimer

   EN    FR    IT 

 









Legend :    VFR   Marginal VFR   IFR   Intensive IFR   Very Intensive IFR
Visi :
Ceiling :
>= 8 km
>= 3000ft
5 to 8 km
1000 to 3000 ft
1500m to 5 km
500 to 1000 ft
800 to 1500m
200 to 500 ft
< 800m
< 200 ft
Symbols :   Thunderstorms  Fog  Heavy snow  Heavy precipitations  Wind > 20 kt






- Airport Elevation : 197 ft
- IATA code : ABY


KABY - Southwest Georgia Regional

CURRENT METAR :
  • 080553Z AUTO 21004KT 10SM CLR 26/24 A3012 RMK AO2 SLP196 T02610239 10317 20261 50001

EXPIRED METARs :
  • 080453Z AUTO 21006KT 10SM CLR 27/24 A3013 RMK AO2 SLP199 T02720239 403560228
  • 080353Z AUTO 20005KT 10SM CLR 28/24 A3012 RMK AO2 SLP198 T02780244

TAF KABY
Valid from the 08 at 06:00 until the 09 at 06:00 UTC


080520Z 0806/0906 VRB03KT P6SM SCT250
FM081500 26005KT P6SM SCT050
PROB30 0820/0824 4SM TSRA SCT025CB BKN050
KZJX FIR / North America



MET'MAP, your aeronautical weather chart ! - Copyright ORBIFLY December 2007 - Disclaimer

ORBIFLY MET'MAP TEAM :

Programming & Development : Alexandra Zaïnal
Concept & original design : Baudouin d'Aumeries
Assistance for programming : Marc-Olivier Méhu
Technical & hardware support : Manuel Goepfert

Contact : metmap@orbifly.com




SOURCES & CREDITS :

   NOAA       Earth
Advisory